createdAt,value
2019-03-20T00:01:03.474Z,5.15
2019-03-20T00:03:33.696Z,4.97
2019-03-20T00:06:03.192Z,4.67
2019-03-20T00:08:33.195Z,5.00
2019-03-20T00:11:02.676Z,5.00
2019-03-20T00:13:32.248Z,5.65
2019-03-20T00:16:01.827Z,5.00
2019-03-20T00:18:31.315Z,5.42
2019-03-20T00:21:00.916Z,5.90
2019-03-20T00:23:30.404Z,5.72
2019-03-20T00:25:59.936Z,6.12
2019-03-20T00:28:29.547Z,5.90
2019-03-20T00:30:59.012Z,5.80
2019-03-20T00:33:28.502Z,6.20
2019-03-20T00:35:58.084Z,6.30
2019-03-20T00:38:27.701Z,5.67
2019-03-20T00:40:57.173Z,6.12
2019-03-20T00:43:27.760Z,6.65
2019-03-20T00:45:57.273Z,5.97
2019-03-20T00:48:27.773Z,5.75
2019-03-20T00:50:57.331Z,6.30
2019-03-20T00:53:27.032Z,6.10
2019-03-20T00:55:56.551Z,6.10
2019-03-20T00:58:26.011Z,5.78
2019-03-20T01:00:55.963Z,5.78
2019-03-20T01:03:26.609Z,5.50
2019-03-20T01:05:56.125Z,5.12
2019-03-20T01:08:25.640Z,5.65
2019-03-20T01:10:55.241Z,5.08
2019-03-20T01:13:24.811Z,5.60
2019-03-20T01:15:54.343Z,5.72
2019-03-20T01:18:23.852Z,5.60
2019-03-20T01:20:54.267Z,5.33
2019-03-20T01:23:23.728Z,5.60
2019-03-20T01:25:53.220Z,5.28
2019-03-20T01:28:22.792Z,4.95
2019-03-20T01:30:52.692Z,5.15
2019-03-20T01:33:22.143Z,4.47
2019-03-20T01:35:51.682Z,4.72
2019-03-20T01:38:21.140Z,4.47
2019-03-20T01:40:50.608Z,4.22
2019-03-20T01:43:20.174Z,4.43
2019-03-20T01:45:49.702Z,4.30
2019-03-20T01:48:20.226Z,4.10
2019-03-20T01:50:49.872Z,4.28
2019-03-20T01:53:19.439Z,4.80
2019-03-20T01:55:49.056Z,4.10
2019-03-20T01:58:18.559Z,4.53
2019-03-20T02:00:47.985Z,4.45
2019-03-20T02:03:17.467Z,4.62
2019-03-20T02:05:46.960Z,4.35
2019-03-20T02:08:16.396Z,4.60
2019-03-20T02:10:45.873Z,4.45
2019-03-20T02:13:15.712Z,4.45
2019-03-20T02:15:45.225Z,4.05
2019-03-20T02:18:14.767Z,4.28
2019-03-20T02:20:44.353Z,7.10
2019-03-20T02:23:13.835Z,5.45
2019-03-20T02:25:43.329Z,4.78
2019-03-20T02:28:12.778Z,4.03
2019-03-20T02:30:42.358Z,4.42
2019-03-20T02:33:11.862Z,4.10
2019-03-20T02:35:51.260Z,4.03
2019-03-20T02:38:12.880Z,3.52
2019-03-20T02:40:42.336Z,3.70
2019-03-20T02:43:11.840Z,3.52
2019-03-20T02:45:41.373Z,4.15
2019-03-20T02:48:10.895Z,3.87
2019-03-20T02:50:40.408Z,3.80
2019-03-20T02:53:09.907Z,3.42
2019-03-20T02:55:39.392Z,3.60
2019-03-20T02:58:08.853Z,3.62
2019-03-20T03:00:38.316Z,3.75
2019-03-20T03:03:07.830Z,3.55
2019-03-20T03:05:37.334Z,3.37
2019-03-20T03:08:06.864Z,3.37
2019-03-20T03:10:36.606Z,3.70
2019-03-20T03:13:06.284Z,3.67
2019-03-20T03:15:35.814Z,3.70
2019-03-20T03:18:05.601Z,3.80
2019-03-20T03:20:35.110Z,3.70
2019-03-20T03:23:04.752Z,3.30
2019-03-20T03:25:34.233Z,3.40
2019-03-20T03:28:05.051Z,3.77
2019-03-20T03:30:34.547Z,3.60
2019-03-20T03:33:04.603Z,3.48
2019-03-20T03:35:34.062Z,3.80
2019-03-20T03:38:04.669Z,3.50
2019-03-20T03:40:34.238Z,3.50
2019-03-20T03:43:04.495Z,3.60
2019-03-20T03:45:33.978Z,3.72
2019-03-20T03:48:04.730Z,3.48
2019-03-20T03:50:34.201Z,3.35
2019-03-20T03:53:04.479Z,3.75
2019-03-20T03:55:33.945Z,3.58
2019-03-20T03:58:04.521Z,3.30
2019-03-20T04:00:34.204Z,3.80
2019-03-20T04:03:04.700Z,3.55
2019-03-20T04:05:34.445Z,3.50
2019-03-20T04:08:04.991Z,3.47
2019-03-20T04:10:34.438Z,4.03
2019-03-20T04:13:04.877Z,3.30
2019-03-20T04:15:36.429Z,3.50
2019-03-20T04:18:06.775Z,3.50
2019-03-20T04:20:36.278Z,3.65
2019-03-20T04:23:05.786Z,3.25
2019-03-20T04:25:35.212Z,3.30
2019-03-20T04:28:04.708Z,3.55
2019-03-20T04:30:34.180Z,3.35
2019-03-20T04:33:04.682Z,3.50
2019-03-20T04:35:34.223Z,2.92
2019-03-20T04:38:04.475Z,3.24
2019-03-20T04:40:34.103Z,3.37
2019-03-20T04:43:04.512Z,3.70
2019-03-20T04:45:34.154Z,3.55
2019-03-20T04:48:04.555Z,3.77
2019-03-20T04:50:34.438Z,3.60
2019-03-20T04:53:04.412Z,3.98
2019-03-20T04:55:33.979Z,3.58
2019-03-20T04:58:03.401Z,3.42
2019-03-20T05:00:32.836Z,3.40
2019-03-20T05:03:02.304Z,3.30
2019-03-20T05:05:31.765Z,3.45
2019-03-20T05:08:01.287Z,3.90
2019-03-20T05:10:30.803Z,3.85
2019-03-20T05:13:00.344Z,3.75
2019-03-20T05:15:29.957Z,4.25
2019-03-20T05:18:00.377Z,3.80
2019-03-20T05:20:29.872Z,3.60
2019-03-20T05:22:59.375Z,4.33
2019-03-20T05:25:28.932Z,4.35
2019-03-20T05:27:58.401Z,3.73
2019-03-20T05:30:27.927Z,4.12
2019-03-20T05:32:57.432Z,3.98
2019-03-20T05:35:26.917Z,4.10
2019-03-20T05:37:56.440Z,4.20
2019-03-20T05:40:25.886Z,4.00
2019-03-20T05:42:55.359Z,3.90
2019-03-20T05:45:24.912Z,4.17
2019-03-20T05:47:54.391Z,3.75
2019-03-20T05:50:24.154Z,4.17
2019-03-20T05:52:53.703Z,4.42
2019-03-20T05:55:23.288Z,3.70
2019-03-20T05:57:52.762Z,3.90
2019-03-20T06:00:23.289Z,4.47
2019-03-20T06:02:52.760Z,4.12
2019-03-20T06:05:22.197Z,4.83
2019-03-20T06:07:52.666Z,4.42
2019-03-20T06:10:22.103Z,4.35
2019-03-20T06:12:51.574Z,4.70
2019-03-20T06:15:21.126Z,4.35
2019-03-20T06:17:51.073Z,4.25
2019-03-20T06:20:21.663Z,4.33
2019-03-20T06:22:51.160Z,4.30
2019-03-20T06:25:21.399Z,5.00
2019-03-20T06:27:52.879Z,5.05
2019-03-20T06:30:22.996Z,4.73
2019-03-20T06:32:52.529Z,4.67
2019-03-20T06:35:22.009Z,4.75
2019-03-20T06:37:51.500Z,4.70
2019-03-20T06:40:21.025Z,4.90
2019-03-20T06:42:50.722Z,5.22
2019-03-20T06:45:21.430Z,5.33
2019-03-20T06:47:50.895Z,6.03
2019-03-20T06:50:22.162Z,5.63
2019-03-20T06:52:51.620Z,5.70
2019-03-20T06:55:21.158Z,5.80
2019-03-20T06:57:50.728Z,5.92
2019-03-20T07:00:29.236Z,6.00
2019-03-20T07:03:00.240Z,5.90
2019-03-20T07:05:35.661Z,5.72
2019-03-20T07:08:06.437Z,6.80
2019-03-20T07:10:50.682Z,5.50
2019-03-20T07:13:20.237Z,6.12
2019-03-20T07:15:49.751Z,6.97
2019-03-20T07:18:19.281Z,6.87
2019-03-20T07:20:48.930Z,7.17
2019-03-20T07:23:18.592Z,6.60
2019-03-20T07:25:48.894Z,7.35
2019-03-20T07:28:18.385Z,7.87
2019-03-20T07:30:47.837Z,7.50
2019-03-20T07:33:17.334Z,8.67
2019-03-20T07:35:46.761Z,7.75
2019-03-20T07:38:16.376Z,8.00
2019-03-20T07:40:45.914Z,8.40
2019-03-20T07:43:15.427Z,8.58
2019-03-20T07:45:44.898Z,8.50
2019-03-20T07:48:22.181Z,8.70
2019-03-20T07:50:45.723Z,9.38
2019-03-20T07:53:15.202Z,8.78
2019-03-20T07:55:44.860Z,9.15
2019-03-20T07:58:14.343Z,9.73
2019-03-20T08:00:43.873Z,9.88
2019-03-20T08:03:14.726Z,10.18
2019-03-20T08:05:44.177Z,11.03
2019-03-20T08:08:13.790Z,10.03
2019-03-20T08:10:43.245Z,11.85
2019-03-20T08:13:12.750Z,11.08
2019-03-20T08:15:42.223Z,11.60
2019-03-20T08:18:11.695Z,11.83
2019-03-20T08:20:41.155Z,11.30
2019-03-20T08:23:10.632Z,11.60
2019-03-20T08:25:40.135Z,11.45
2019-03-20T08:28:09.937Z,10.43
2019-03-20T08:30:39.465Z,11.15
2019-03-20T08:33:09.034Z,11.28
2019-03-20T08:35:38.697Z,10.63
2019-03-20T08:38:17.635Z,11.70
2019-03-20T08:40:40.402Z,11.18
2019-03-20T08:43:09.888Z,11.50
2019-03-20T08:45:39.450Z,11.48
2019-03-20T08:48:08.895Z,11.08
2019-03-20T08:50:38.471Z,10.98
2019-03-20T08:53:08.070Z,11.03
2019-03-20T08:55:38.756Z,11.05
2019-03-20T08:58:08.200Z,11.53
2019-03-20T09:00:37.664Z,10.68
2019-03-20T09:03:07.321Z,11.40
2019-03-20T09:05:36.802Z,10.90
2019-03-20T09:08:06.296Z,11.15
2019-03-20T09:10:35.770Z,10.78
2019-03-20T09:13:05.268Z,10.15
2019-03-20T09:15:34.760Z,10.65
2019-03-20T09:18:05.016Z,10.60
2019-03-20T09:20:34.627Z,9.93
2019-03-20T09:23:04.356Z,10.08
2019-03-20T09:25:33.945Z,10.23
2019-03-20T09:28:03.547Z,12.43
2019-03-20T09:30:33.028Z,9.03
2019-03-20T09:33:02.477Z,10.58
2019-03-20T09:35:31.996Z,9.93
2019-03-20T09:38:01.459Z,9.65
2019-03-20T09:40:30.944Z,9.53
2019-03-20T09:43:00.442Z,9.43
2019-03-20T09:45:30.319Z,10.15
2019-03-20T09:48:00.030Z,9.68
2019-03-20T09:50:29.991Z,10.05
2019-03-20T09:52:59.487Z,10.32
2019-03-20T09:55:28.952Z,10.50
2019-03-20T09:57:58.435Z,9.80
2019-03-20T10:00:30.930Z,10.03
2019-03-20T10:03:00.546Z,10.85
2019-03-20T10:05:30.977Z,10.08
2019-03-20T10:08:00.492Z,9.67
2019-03-20T10:10:31.100Z,10.13
2019-03-20T10:13:00.614Z,9.45
2019-03-20T10:15:32.178Z,9.55
2019-03-20T10:18:01.689Z,9.13
2019-03-20T10:20:31.257Z,9.00
2019-03-20T10:23:00.825Z,8.75
2019-03-20T10:25:30.305Z,9.35
2019-03-20T10:27:59.736Z,9.48
2019-03-20T10:30:30.325Z,9.50
2019-03-20T10:32:59.717Z,9.15
2019-03-20T10:35:29.211Z,9.40
2019-03-20T10:37:58.643Z,8.78
2019-03-20T10:40:28.804Z,9.28
2019-03-20T10:42:58.386Z,11.48
2019-03-20T10:45:27.888Z,9.30
2019-03-20T10:47:57.333Z,9.05
2019-03-20T10:50:30.496Z,9.33
2019-03-20T10:53:00.050Z,9.38
2019-03-20T10:55:29.535Z,9.55
2019-03-20T10:57:59.058Z,8.55
2019-03-20T11:00:29.976Z,9.25
2019-03-20T11:02:59.454Z,9.23
2019-03-20T11:05:29.002Z,8.58
2019-03-20T11:07:58.471Z,9.00
2019-03-20T11:10:28.827Z,9.35
2019-03-20T11:12:58.557Z,9.30
2019-03-20T11:15:29.722Z,8.75
2019-03-20T11:17:59.346Z,8.70
2019-03-20T11:20:29.742Z,9.48
2019-03-20T11:22:59.194Z,9.33
2019-03-20T11:25:29.701Z,9.13
2019-03-20T11:27:59.208Z,8.05
2019-03-20T11:30:29.722Z,8.70
2019-03-20T11:32:59.339Z,9.10
2019-03-20T11:35:28.814Z,8.80
2019-03-20T11:37:58.292Z,7.97
2019-03-20T11:40:30.153Z,8.28
2019-03-20T11:42:59.596Z,9.23
2019-03-20T11:45:29.238Z,7.37
2019-03-20T11:47:58.723Z,6.37
2019-03-20T11:50:33.963Z,5.50
2019-03-20T11:53:05.445Z,5.80
2019-03-20T11:55:35.141Z,5.92
2019-03-20T11:58:05.323Z,7.80
2019-03-20T12:00:34.957Z,5.42
2019-03-20T12:03:04.955Z,5.60
2019-03-20T12:05:34.910Z,5.42
2019-03-20T12:08:06.245Z,5.40
2019-03-20T12:10:35.753Z,5.33
2019-03-20T12:13:05.353Z,5.95
2019-03-20T12:15:35.031Z,5.22
2019-03-20T12:18:06.173Z,5.17
2019-03-20T12:20:35.615Z,5.58
2019-03-20T12:23:05.195Z,5.53
2019-03-20T12:25:36.653Z,5.25
2019-03-20T12:28:06.811Z,4.80
2019-03-20T12:30:38.421Z,4.67
2019-03-20T12:33:08.132Z,4.70
2019-03-20T12:35:45.708Z,5.00
2019-03-20T12:38:15.619Z,4.78
2019-03-20T12:40:45.246Z,5.03
2019-03-20T12:43:14.907Z,5.72
2019-03-20T12:45:44.355Z,5.60
2019-03-20T12:48:16.163Z,4.70
2019-03-20T12:50:45.663Z,4.85
2019-03-20T12:53:18.116Z,4.05
2019-03-20T12:55:47.622Z,4.37
2019-03-20T12:58:17.193Z,4.10
2019-03-20T13:03:17.922Z,4.90
2019-03-20T13:05:47.358Z,5.40
2019-03-20T13:08:16.792Z,5.65
2019-03-20T13:10:46.322Z,5.53
2019-03-20T13:13:15.972Z,6.40
2019-03-20T13:15:45.550Z,5.85
2019-03-20T13:18:15.201Z,6.17
2019-03-20T13:20:44.790Z,6.25
2019-03-20T13:23:26.433Z,6.40
2019-03-20T13:25:55.999Z,6.55
2019-03-20T13:28:25.514Z,7.30
2019-03-20T13:31:04.135Z,6.95
2019-03-20T13:33:33.701Z,7.45
2019-03-20T13:36:03.148Z,7.45
2019-03-20T13:38:32.698Z,7.58
2019-03-20T13:41:02.174Z,7.95
2019-03-20T13:43:31.650Z,7.95
2019-03-20T13:46:01.092Z,7.90
2019-03-20T13:48:30.565Z,8.40
2019-03-20T13:51:00.010Z,7.90
2019-03-20T13:53:29.520Z,8.68
2019-03-20T13:55:59.146Z,8.88
2019-03-20T13:58:28.744Z,8.33
2019-03-20T14:00:58.221Z,8.25
2019-03-20T14:03:27.730Z,8.63
2019-03-20T14:05:58.303Z,8.30
2019-03-20T14:08:27.745Z,8.50
2019-03-20T14:10:57.224Z,8.18
2019-03-20T14:13:26.727Z,8.88
2019-03-20T14:15:56.198Z,8.08
2019-03-20T14:18:26.818Z,7.50
2019-03-20T14:20:56.397Z,7.62
2019-03-20T14:23:25.896Z,7.87
2019-03-20T14:25:56.410Z,7.87
2019-03-20T14:28:25.938Z,7.92
2019-03-20T14:30:55.369Z,8.00
2019-03-20T14:33:24.852Z,7.70
2019-03-20T14:35:54.311Z,7.62
2019-03-20T14:38:23.787Z,6.67
2019-03-20T14:40:53.303Z,8.73
2019-03-20T14:43:22.833Z,7.87
2019-03-20T14:45:52.311Z,7.20
2019-03-20T14:48:21.945Z,8.23
2019-03-20T14:50:51.414Z,8.00
2019-03-20T14:53:20.870Z,7.90
2019-03-20T14:55:50.417Z,8.28
2019-03-20T14:58:19.982Z,8.48
2019-03-20T15:00:49.498Z,8.33
2019-03-20T15:03:18.965Z,7.85
2019-03-20T15:05:48.455Z,8.33
2019-03-20T15:08:17.898Z,8.33
2019-03-20T15:10:47.460Z,8.45
2019-03-20T15:13:16.908Z,8.23
2019-03-20T15:15:52.435Z,8.80
2019-03-20T15:18:21.903Z,7.90
2019-03-20T15:20:51.570Z,8.10
2019-03-20T15:23:21.022Z,9.05
2019-03-20T15:25:50.502Z,8.53
2019-03-20T15:28:20.040Z,8.63
2019-03-20T15:30:49.524Z,7.53
2019-03-20T15:33:19.090Z,8.05
2019-03-20T15:35:48.536Z,8.20
2019-03-20T15:38:17.983Z,8.18
2019-03-20T15:40:55.825Z,8.00
2019-03-20T15:43:18.779Z,7.70
2019-03-20T15:45:48.323Z,8.23
2019-03-20T15:48:17.853Z,8.65
2019-03-20T15:50:47.324Z,8.15
2019-03-20T15:53:16.771Z,8.28
2019-03-20T15:55:46.599Z,8.00
2019-03-20T15:58:16.746Z,8.15
2019-03-20T16:00:46.528Z,8.83
2019-03-20T16:03:27.885Z,7.60
2019-03-20T16:05:57.591Z,7.70
2019-03-20T16:08:27.108Z,8.23
2019-03-20T16:11:06.154Z,7.72
2019-03-20T16:13:28.523Z,8.15
2019-03-20T16:15:59.175Z,8.13
2019-03-20T16:18:28.685Z,8.18
2019-03-20T16:20:58.354Z,8.45
2019-03-20T16:23:27.824Z,7.87
2019-03-20T16:25:57.340Z,7.90
2019-03-20T16:28:26.809Z,7.30
2019-03-20T16:30:56.416Z,7.72
2019-03-20T16:33:26.377Z,7.20
2019-03-20T16:35:55.864Z,7.25
2019-03-20T16:38:25.685Z,7.03
2019-03-20T16:40:55.241Z,7.42
2019-03-20T16:43:25.004Z,6.87
2019-03-20T16:45:55.427Z,6.30
2019-03-20T16:48:24.905Z,6.55
2019-03-20T16:50:54.802Z,5.90
2019-03-20T16:53:24.378Z,5.97
2019-03-20T16:55:54.016Z,5.65
2019-03-20T16:58:23.856Z,5.90
2019-03-20T17:00:53.424Z,5.95
2019-03-20T17:03:54.806Z,5.95
2019-03-20T17:06:51.467Z,6.25
2019-03-20T17:09:20.922Z,5.90
2019-03-20T17:11:50.408Z,5.90
2019-03-20T17:14:20.374Z,5.80
2019-03-20T17:16:50.183Z,6.30
2019-03-20T17:19:19.707Z,5.85
2019-03-20T17:21:50.975Z,5.70
2019-03-20T17:24:22.686Z,6.00
2019-03-20T17:26:54.069Z,5.90
2019-03-20T17:29:23.767Z,5.47
2019-03-20T17:31:53.274Z,5.45
2019-03-20T17:34:22.827Z,6.37
2019-03-20T17:36:52.299Z,5.92
2019-03-20T17:39:24.768Z,6.03
2019-03-20T17:41:54.288Z,6.22
2019-03-20T17:44:23.803Z,6.20
2019-03-20T17:46:53.468Z,6.25
2019-03-20T17:49:23.109Z,6.47
2019-03-20T17:51:52.646Z,6.42
2019-03-20T17:54:22.432Z,6.30
2019-03-20T17:56:52.288Z,7.10
2019-03-20T17:59:21.769Z,7.12
2019-03-20T18:01:51.758Z,7.17
2019-03-20T18:04:21.472Z,6.57
2019-03-20T18:06:59.526Z,6.53
2019-03-20T18:09:31.253Z,6.55
2019-03-20T18:12:00.807Z,6.78
2019-03-20T18:14:31.266Z,6.37
2019-03-20T18:17:01.079Z,6.50
2019-03-20T18:19:30.659Z,7.15
2019-03-20T18:22:00.141Z,6.80
2019-03-20T18:24:29.720Z,7.17
2019-03-20T18:26:59.395Z,7.10
2019-03-20T18:29:29.051Z,6.72
2019-03-20T18:31:58.560Z,7.97
2019-03-20T18:34:28.242Z,6.83
2019-03-20T18:36:59.360Z,7.40
2019-03-20T18:39:29.286Z,7.87
2019-03-20T18:41:58.851Z,7.75
2019-03-20T18:44:28.749Z,7.60
2019-03-20T18:46:58.663Z,7.92
2019-03-20T18:49:28.758Z,8.63
2019-03-20T18:51:58.285Z,8.33
2019-03-20T18:54:27.840Z,8.10
2019-03-20T18:56:58.150Z,7.95
2019-03-20T18:59:31.542Z,8.00
2019-03-20T19:02:01.387Z,7.80
2019-03-20T19:04:31.049Z,7.35
2019-03-20T19:07:00.818Z,7.40
2019-03-20T19:09:30.949Z,7.67
2019-03-20T19:12:08.597Z,7.33
2019-03-20T19:14:37.581Z,7.22
2019-03-20T19:17:07.522Z,7.42
2019-03-20T19:19:41.387Z,7.55
2019-03-20T19:22:11.018Z,7.33
2019-03-20T19:24:41.837Z,7.37
2019-03-20T19:27:13.158Z,7.70
2019-03-20T19:29:44.843Z,7.50
2019-03-20T19:32:16.021Z,7.90
2019-03-20T19:34:46.960Z,8.65
2019-03-20T19:37:16.424Z,8.30
2019-03-20T19:39:46.052Z,8.60
2019-03-20T19:42:20.244Z,8.70
2019-03-20T19:44:50.698Z,9.03
2019-03-20T19:47:22.238Z,8.93
2019-03-20T19:49:51.860Z,9.50
2019-03-20T19:52:25.457Z,9.80
2019-03-20T19:54:55.936Z,9.70
2019-03-20T19:57:27.897Z,9.60
2019-03-20T19:59:59.814Z,10.25
2019-03-20T20:02:38.536Z,9.85
2019-03-20T20:05:15.311Z,10.20
2019-03-20T20:07:41.651Z,10.88
2019-03-20T20:10:14.527Z,9.63
2019-03-20T20:12:44.237Z,10.55
2019-03-20T20:15:24.449Z,10.37
2019-03-20T20:17:53.895Z,10.18
2019-03-20T20:20:37.215Z,10.45
2019-03-20T20:23:06.803Z,10.78
2019-03-20T20:25:36.365Z,9.50
2019-03-20T20:28:05.926Z,10.38
2019-03-20T20:30:35.544Z,10.25
2019-03-20T20:33:05.304Z,10.48
2019-03-20T20:35:34.893Z,10.75
2019-03-20T20:38:07.087Z,11.75
2019-03-20T20:40:36.674Z,10.70
2019-03-20T20:43:06.132Z,11.30
2019-03-20T20:45:37.724Z,11.95
2019-03-20T20:48:07.768Z,12.00
2019-03-20T20:50:39.629Z,11.80
2019-03-20T20:53:09.331Z,11.66
2019-03-20T20:55:39.161Z,12.20
2019-03-20T20:58:10.262Z,12.10
2019-03-20T21:00:39.750Z,12.80
2019-03-20T21:03:09.217Z,12.13
2019-03-20T21:05:38.796Z,14.20
2019-03-20T21:08:08.286Z,14.25
2019-03-20T21:10:37.761Z,14.53
2019-03-20T21:13:07.214Z,15.18
2019-03-20T21:15:44.249Z,15.75
2019-03-20T21:18:16.749Z,15.28
2019-03-20T21:20:48.455Z,14.95
2019-03-20T21:23:38.796Z,14.65
2019-03-20T21:26:23.182Z,14.35
2019-03-20T21:29:12.785Z,15.28
2019-03-20T21:31:51.305Z,15.95
2019-03-20T21:34:35.856Z,16.77
2019-03-20T21:37:30.547Z,15.70
2019-03-20T21:40:00.493Z,16.52
2019-03-20T21:42:34.223Z,14.53
2019-03-20T21:45:42.098Z,15.40
2019-03-20T21:48:11.796Z,14.50
2019-03-20T21:50:56.667Z,15.15
2019-03-20T21:53:41.102Z,15.30
2019-03-20T21:56:36.661Z,16.40
2019-03-20T21:59:20.958Z,16.73
2019-03-20T22:02:12.150Z,15.70
2019-03-20T22:04:42.734Z,16.73
2019-03-20T22:07:13.053Z,17.45
2019-03-20T22:09:54.985Z,18.17
2019-03-20T22:12:42.607Z,17.23
2019-03-20T22:15:28.366Z,17.30
2019-03-20T22:18:26.717Z,16.90
2019-03-20T22:20:59.317Z,16.37
2019-03-20T22:23:41.008Z,16.02
2019-03-20T22:26:34.780Z,16.27
2019-03-20T22:29:20.295Z,16.65
2019-03-20T22:32:11.809Z,16.45
2019-03-20T22:35:08.725Z,17.07
2019-03-20T22:37:39.616Z,16.70
2019-03-20T22:40:18.028Z,16.86
2019-03-20T22:43:05.617Z,16.67
2019-03-20T22:45:40.980Z,16.87
2019-03-20T22:48:46.723Z,17.10
2019-03-20T22:51:29.080Z,16.32
2019-03-20T22:54:10.687Z,17.40
2019-03-20T22:56:58.277Z,16.00
2019-03-20T22:59:27.828Z,16.73
2019-03-20T23:02:07.172Z,16.77
2019-03-20T23:04:39.891Z,17.77
2019-03-20T23:07:10.686Z,17.55
2019-03-20T23:09:40.436Z,17.70
2019-03-20T23:12:12.463Z,17.35
2019-03-20T23:14:41.934Z,18.52
2019-03-20T23:17:12.597Z,17.75
2019-03-20T23:19:43.634Z,18.85
2019-03-20T23:22:13.088Z,19.07
2019-03-20T23:24:43.024Z,19.15
2019-03-20T23:27:22.007Z,19.67
2019-03-20T23:29:52.596Z,20.48
2019-03-20T23:32:22.069Z,20.65
2019-03-20T23:34:51.712Z,20.23
2019-03-20T23:37:21.201Z,20.27
2019-03-20T23:40:13.085Z,19.77
2019-03-20T23:42:50.535Z,19.95
2019-03-20T23:45:20.608Z,19.15
2019-03-20T23:47:53.135Z,19.90
2019-03-20T23:50:22.681Z,18.42
2019-03-20T23:52:52.407Z,18.77
2019-03-20T23:55:21.969Z,19.95
2019-03-20T23:57:51.512Z,19.33
